Time;durP1;ratioP1;P1;durP2;ratioP2;P2;SDS_P1;SDS_P2;PMS_P1;PMS_P2;Temp;Humidity;BMP_temperature;BMP_pressure;BME280_temperature;BME280_humidity;BME280_pressure;Samples;Min_cycle;Max_cycle;Signal;HPM_P1;HPM_P2
2024/04/16 00:00:15;;;;;;;6.62;4.15;;;;;;;;;;4341936;32;317338;-83
2024/04/16 00:02:41;;;;;;;9.15;4.62;;;;;;;;;;4320085;32;317119;-84
2024/04/16 00:05:10;;;;;;;8.27;4.82;;;;;;;;;;4335720;32;317226;-83
2024/04/16 00:07:35;;;;;;;11.60;4.35;;;;;;;;;;4327075;32;316831;-84
2024/04/16 00:10:02;;;;;;;9.88;4.82;;;;;;;;;;4336595;32;318824;-83
2024/04/16 00:12:28;;;;;;;9.80;5.55;;;;;;;;;;4327054;32;317667;-84
2024/04/16 00:14:54;;;;;;;7.07;4.30;;;;;;;;;;4343495;32;317387;-85
2024/04/16 00:17:23;;;;;;;7.85;4.55;;;;;;;;;;4350661;32;317028;-84
2024/04/16 00:19:50;;;;;;;9.20;4.35;;;;;;;;;;4342426;32;317631;-83
2024/04/16 00:22:16;;;;;;;7.78;3.95;;;;;;;;;;4351819;32;316672;-82
2024/04/16 00:24:43;;;;;;;8.40;4.13;;;;;;;;;;4334394;32;317371;-84
2024/04/16 00:27:08;;;;;;;6.20;3.95;;;;;;;;;;4351558;32;317124;-84
2024/04/16 00:29:35;;;;;;;5.60;3.42;;;;;;;;;;4341743;32;317233;-85
2024/04/16 00:32:01;;;;;;;13.35;4.65;;;;;;;;;;4350974;32;317292;-84
2024/04/16 00:34:29;;;;;;;9.98;4.10;;;;;;;;;;4326964;32;357521;-83
2024/04/16 00:36:55;;;;;;;7.90;4.22;;;;;;;;;;4330517;32;317482;-84
2024/04/16 00:39:21;;;;;;;11.32;3.92;;;;;;;;;;4336909;32;317328;-83
2024/04/16 00:41:47;;;;;;;9.07;3.67;;;;;;;;;;4324833;32;318491;-83
2024/04/16 00:44:14;;;;;;;6.87;3.97;;;;;;;;;;4335566;32;317174;-84
2024/04/16 00:46:40;;;;;;;9.25;4.00;;;;;;;;;;4320544;32;317359;-82
2024/04/16 00:49:08;;;;;;;15.60;4.62;;;;;;;;;;4343951;32;317262;-83
2024/04/16 00:51:35;;;;;;;7.60;3.50;;;;;;;;;;4337086;32;326404;-83
2024/04/16 00:54:03;;;;;;;10.07;4.25;;;;;;;;;;4345471;32;323507;-82
2024/04/16 00:56:29;;;;;;;7.22;4.18;;;;;;;;;;4327233;32;318275;-84
2024/04/16 00:58:55;;;;;;;14.38;4.55;;;;;;;;;;4326756;32;317382;-83
2024/04/16 01:01:21;;;;;;;10.00;4.37;;;;;;;;;;4332332;32;318347;-84
2024/04/16 01:03:48;;;;;;;10.05;4.53;;;;;;;;;;4323174;32;318385;-84
2024/04/16 01:06:13;;;;;;;11.02;4.53;;;;;;;;;;4333766;32;318631;-83
2024/04/16 01:08:42;;;;;;;11.15;4.43;;;;;;;;;;4317480;32;318417;-83
2024/04/16 01:11:07;;;;;;;13.20;5.65;;;;;;;;;;4332755;32;318317;-83
2024/04/16 01:13:34;;;;;;;11.23;4.43;;;;;;;;;;4326494;32;318849;-83
2024/04/16 01:16:00;;;;;;;7.68;4.28;;;;;;;;;;4347230;32;318743;-83
2024/04/16 01:18:26;;;;;;;9.48;4.78;;;;;;;;;;4337965;32;317216;-83
2024/04/16 01:20:52;;;;;;;7.30;4.65;;;;;;;;;;4339696;32;317181;-83
2024/04/16 01:23:21;;;;;;;8.10;5.05;;;;;;;;;;4347065;32;317330;-83
2024/04/16 01:25:47;;;;;;;9.65;4.65;;;;;;;;;;4338099;32;317537;-83
2024/04/16 01:28:13;;;;;;;14.98;5.05;;;;;;;;;;4347783;32;317110;-83
2024/04/16 01:30:39;;;;;;;12.90;5.85;;;;;;;;;;4328507;32;318653;-83
2024/04/16 01:33:08;;;;;;;11.02;4.75;;;;;;;;;;4346367;32;318068;-83
2024/04/16 01:35:34;;;;;;;18.80;5.10;;;;;;;;;;4338050;32;318464;-83
2024/04/16 01:38:01;;;;;;;8.20;5.32;;;;;;;;;;4345719;32;318889;-85
2024/04/16 01:40:28;;;;;;;9.30;4.43;;;;;;;;;;4338627;32;373588;-83
2024/04/16 01:42:55;;;;;;;9.88;4.72;;;;;;;;;;4343165;32;317354;-83
2024/04/16 01:45:21;;;;;;;17.95;4.75;;;;;;;;;;4350362;32;316578;-83
2024/04/16 01:47:47;;;;;;;8.38;4.72;;;;;;;;;;4340307;32;318327;-83
2024/04/16 01:50:13;;;;;;;10.95;5.68;;;;;;;;;;4348219;32;349151;-83
2024/04/16 01:52:40;;;;;;;16.33;5.55;;;;;;;;;;4331745;32;320434;-83
2024/04/16 01:55:06;;;;;;;7.78;4.72;;;;;;;;;;4350534;32;318531;-83
2024/04/16 01:57:35;;;;;;;7.47;5.18;;;;;;;;;;4340867;32;317250;-83
2024/04/16 02:00:01;;;;;;;11.10;5.07;;;;;;;;;;4349712;32;318176;-83
2024/04/16 02:02:27;;;;;;;10.18;4.65;;;;;;;;;;4340514;32;318179;-84
2024/04/16 02:04:55;;;;;;;12.13;7.55;;;;;;;;;;4343517;32;317621;-84
2024/04/16 02:07:21;;;;;;;13.60;5.70;;;;;;;;;;4348961;32;318320;-82
2024/04/16 02:09:47;;;;;;;15.20;6.55;;;;;;;;;;4338733;32;318432;-84
2024/04/16 02:12:14;;;;;;;12.25;6.43;;;;;;;;;;4349079;32;318499;-82
2024/04/16 02:14:41;;;;;;;13.07;5.95;;;;;;;;;;4333683;32;318099;-84
2024/04/16 02:17:08;;;;;;;12.32;5.60;;;;;;;;;;4349642;32;318275;-84
2024/04/16 02:19:34;;;;;;;14.73;6.12;;;;;;;;;;4338814;32;317735;-84
2024/04/16 02:22:00;;;;;;;9.60;5.78;;;;;;;;;;4348587;32;317919;-84
2024/04/16 02:24:26;;;;;;;13.20;5.70;;;;;;;;;;4335260;32;344103;-83
2024/04/16 02:26:53;;;;;;;13.20;6.35;;;;;;;;;;4341262;32;320703;-84
2024/04/16 02:29:18;;;;;;;8.38;5.45;;;;;;;;;;4349466;32;318354;-84
2024/04/16 02:31:46;;;;;;;7.87;5.30;;;;;;;;;;4339791;32;316385;-83
2024/04/16 02:34:12;;;;;;;11.10;6.25;;;;;;;;;;4349753;32;317107;-83
2024/04/16 02:36:39;;;;;;;13.30;6.45;;;;;;;;;;4332580;32;318598;-84
2024/04/16 02:39:05;;;;;;;12.65;6.22;;;;;;;;;;4349940;32;319111;-84
2024/04/16 02:41:32;;;;;;;8.23;5.87;;;;;;;;;;4341194;32;318509;-83
2024/04/16 02:43:57;;;;;;;11.70;6.28;;;;;;;;;;4349802;32;316819;-83
2024/04/16 02:46:24;;;;;;;10.50;6.32;;;;;;;;;;4349015;32;318198;-84
2024/04/16 02:48:51;;;;;;;12.90;6.93;;;;;;;;;;4334964;32;318207;-84
2024/04/16 02:51:18;;;;;;;11.43;6.07;;;;;;;;;;4352856;32;317520;-84
2024/04/16 02:53:43;;;;;;;14.57;5.47;;;;;;;;;;4349919;32;317321;-81
2024/04/16 02:56:10;;;;;;;13.80;5.70;;;;;;;;;;4356884;32;317251;-83
2024/04/16 02:58:36;;;;;;;9.88;6.70;;;;;;;;;;4343369;32;318255;-84
2024/04/16 03:01:05;;;;;;;8.43;6.03;;;;;;;;;;4349573;32;317081;-84
2024/04/16 03:03:32;;;;;;;12.98;6.15;;;;;;;;;;4341942;32;316946;-83
2024/04/16 03:06:00;;;;;;;8.65;6.03;;;;;;;;;;4354973;32;340054;-84
2024/04/16 03:08:26;;;;;;;11.25;5.90;;;;;;;;;;4347813;32;317078;-83
2024/04/16 03:10:57;;;;;;;13.07;6.82;;;;;;;;;;4349183;32;317744;-84
2024/04/16 03:13:23;;;;;;;39.35;25.40;;;;;;;;;;4350710;32;345666;-83
2024/04/16 03:15:50;;;;;;;59.08;36.53;;;;;;;;;;4340204;32;319090;-84
2024/04/16 03:18:15;;;;;;;24.80;13.68;;;;;;;;;;4350369;32;318680;-84
2024/04/16 03:20:42;;;;;;;19.02;10.40;;;;;;;;;;4334126;32;319156;-84
2024/04/16 03:23:09;;;;;;;15.18;8.02;;;;;;;;;;4351494;32;318645;-83
2024/04/16 03:25:42;;;;;;;12.57;6.75;;;;;;;;;;4342419;32;318200;-82
2024/04/16 03:28:08;;;;;;;14.82;8.50;;;;;;;;;;4350767;32;318073;-84
2024/04/16 03:30:34;;;;;;;14.00;7.62;;;;;;;;;;4341062;32;318562;-84
2024/04/16 03:33:00;;;;;;;11.45;6.85;;;;;;;;;;4343225;32;356157;-84
2024/04/16 03:35:27;;;;;;;13.60;7.28;;;;;;;;;;4340237;32;328524;-84
2024/04/16 03:37:54;;;;;;;11.77;6.72;;;;;;;;;;4353570;32;318099;-84
2024/04/16 03:40:22;;;;;;;11.27;6.03;;;;;;;;;;4351415;32;317696;-83
2024/04/16 03:42:48;;;;;;;17.67;5.97;;;;;;;;;;4336169;32;318214;-83
2024/04/16 03:45:14;;;;;;;14.45;5.80;;;;;;;;;;4350689;32;348716;-85
2024/04/16 03:47:41;;;;;;;10.10;6.20;;;;;;;;;;4341470;32;319316;-83
2024/04/16 03:50:07;;;;;;;10.20;5.55;;;;;;;;;;4352744;32;318353;-84
2024/04/16 03:52:33;;;;;;;8.27;5.55;;;;;;;;;;4342957;32;318111;-84
2024/04/16 03:54:59;;;;;;;14.77;6.20;;;;;;;;;;4346229;32;317231;-83
2024/04/16 03:57:27;;;;;;;10.52;5.68;;;;;;;;;;4351873;32;318287;-84
2024/04/16 04:02:38;;;;;;;13.02;7.45;;;;;;;;;;4335299;32;318033;-83
2024/04/16 04:05:06;;;;;;;14.02;7.85;;;;;;;;;;4335875;32;317710;-83
2024/04/16 04:07:32;;;;;;;23.05;8.20;;;;;;;;;;4326542;32;318309;-83
2024/04/16 04:09:58;;;;;;;22.20;8.20;;;;;;;;;;4336835;32;318258;-85
2024/04/16 04:12:26;;;;;;;14.13;7.60;;;;;;;;;;4337477;32;318672;-84
2024/04/16 04:14:52;;;;;;;15.65;7.43;;;;;;;;;;4326796;32;417505;-84
2024/04/16 04:17:19;;;;;;;13.10;7.85;;;;;;;;;;4336537;32;318495;-85
2024/04/16 04:19:45;;;;;;;13.93;7.62;;;;;;;;;;4339791;32;318134;-83
2024/04/16 04:22:11;;;;;;;9.82;7.72;;;;;;;;;;4335496;32;317547;-82
2024/04/16 04:24:37;;;;;;;14.40;9.07;;;;;;;;;;4345942;32;316999;-83
2024/04/16 04:27:04;;;;;;;31.25;9.77;;;;;;;;;;4346449;32;318053;-82
2024/04/16 04:29:33;;;;;;;23.98;11.63;;;;;;;;;;4323324;32;318350;-83
2024/04/16 04:32:00;;;;;;;22.10;13.80;;;;;;;;;;4333983;32;319262;-82
2024/04/16 04:34:25;;;;;;;20.83;8.18;;;;;;;;;;4324137;32;319375;-83
2024/04/16 04:36:52;;;;;;;17.75;8.18;;;;;;;;;;4333814;32;318326;-83
2024/04/16 04:39:18;;;;;;;22.48;9.07;;;;;;;;;;4323088;32;318178;-83
2024/04/16 04:41:44;;;;;;;25.17;7.90;;;;;;;;;;4332703;32;317570;-82
2024/04/16 04:44:10;;;;;;;22.85;13.23;;;;;;;;;;4326361;32;351520;-83
2024/04/16 04:46:38;;;;;;;19.12;9.25;;;;;;;;;;4336046;32;319223;-83
2024/04/16 04:49:06;;;;;;;25.02;10.27;;;;;;;;;;4337083;32;318302;-83
2024/04/16 04:51:33;;;;;;;30.17;9.30;;;;;;;;;;4323418;32;319242;-83
2024/04/16 04:53:59;;;;;;;20.60;10.25;;;;;;;;;;4343078;32;317269;-83
2024/04/16 04:56:25;;;;;;;28.02;10.90;;;;;;;;;;4334850;32;318092;-83
2024/04/16 04:58:51;;;;;;;21.27;10.20;;;;;;;;;;4345227;32;330677;-83
2024/04/16 05:01:18;;;;;;;26.03;9.60;;;;;;;;;;4334800;32;319364;-82
2024/04/16 05:03:45;;;;;;;23.45;8.93;;;;;;;;;;4334295;32;318312;-83
2024/04/16 05:06:12;;;;;;;28.67;9.48;;;;;;;;;;4323467;32;318186;-83
2024/04/16 05:08:37;;;;;;;33.17;9.88;;;;;;;;;;4333874;32;318200;-82
2024/04/16 05:11:04;;;;;;;34.92;10.73;;;;;;;;;;4334227;32;318232;-82
2024/04/16 05:13:31;;;;;;;32.30;10.05;;;;;;;;;;4324301;32;318530;-82
2024/04/16 05:15:57;;;;;;;40.95;11.57;;;;;;;;;;4336633;32;319343;-82
2024/04/16 05:18:23;;;;;;;29.87;12.10;;;;;;;;;;4326776;32;338496;-82
2024/04/16 05:20:51;;;;;;;37.78;12.98;;;;;;;;;;4352107;32;319364;-83
2024/04/16 05:23:18;;;;;;;27.73;11.80;;;;;;;;;;4344352;32;319262;-82
2024/04/16 05:25:53;;;;;;;34.67;14.27;;;;;;;;;;4348088;32;319341;-82
2024/04/16 05:28:19;;;;;;;27.73;13.38;;;;;;;;;;4341828;32;319162;-83
2024/04/16 05:30:45;;;;;;;22.73;12.02;;;;;;;;;;4353221;32;319294;-80
2024/04/16 05:33:11;;;;;;;21.35;11.95;;;;;;;;;;4344361;32;330205;-80
2024/04/16 05:35:38;;;;;;;26.50;12.40;;;;;;;;;;4348868;32;318842;-80
2024/04/16 05:38:05;;;;;;;28.75;13.88;;;;;;;;;;4350928;32;319675;-80
2024/04/16 05:40:32;;;;;;;24.87;11.25;;;;;;;;;;4340603;32;318894;-81
2024/04/16 05:42:58;;;;;;;20.10;10.63;;;;;;;;;;4348819;32;319167;-82
2024/04/16 05:45:25;;;;;;;16.10;9.38;;;;;;;;;;4333494;32;319688;-81
2024/04/16 05:47:51;;;;;;;20.98;10.30;;;;;;;;;;4347345;32;317552;-81
2024/04/16 05:50:17;;;;;;;29.00;11.45;;;;;;;;;;4341355;32;319745;-80
2024/04/16 05:52:43;;;;;;;34.65;10.45;;;;;;;;;;4351998;32;319153;-81
2024/04/16 05:55:11;;;;;;;32.05;13.05;;;;;;;;;;4340496;32;383402;-81
2024/04/16 05:57:37;;;;;;;25.88;11.57;;;;;;;;;;4348443;32;319429;-80
2024/04/16 06:00:04;;;;;;;26.12;10.75;;;;;;;;;;4350241;32;319358;-82
2024/04/16 06:02:30;;;;;;;18.30;8.68;;;;;;;;;;4338967;32;319461;-82
2024/04/16 06:04:57;;;;;;;18.65;7.62;;;;;;;;;;4340757;32;346472;-80
2024/04/16 06:07:23;;;;;;;23.08;9.07;;;;;;;;;;4319981;32;318033;-82
2024/04/16 06:09:49;;;;;;;20.08;8.88;;;;;;;;;;4351070;32;317667;-82
2024/04/16 06:12:16;;;;;;;18.98;8.88;;;;;;;;;;4327756;32;318374;-81
2024/04/16 06:14:43;;;;;;;31.20;9.30;;;;;;;;;;4349068;32;318203;-81
2024/04/16 06:17:09;;;;;;;31.55;9.02;;;;;;;;;;4344161;32;317832;-81
2024/04/16 06:19:36;;;;;;;26.15;10.48;;;;;;;;;;4345977;32;317671;-82
2024/04/16 06:22:02;;;;;;;32.33;10.40;;;;;;;;;;4352013;32;360251;-80
2024/04/16 06:24:28;;;;;;;24.73;10.20;;;;;;;;;;4342313;32;319149;-81
2024/04/16 06:26:54;;;;;;;26.80;10.65;;;;;;;;;;4351372;32;319781;-81
2024/04/16 06:29:22;;;;;;;33.97;11.50;;;;;;;;;;4335000;32;319164;-80
2024/04/16 06:31:48;;;;;;;31.42;11.30;;;;;;;;;;4351811;32;319231;-80
2024/04/16 06:34:15;;;;;;;21.08;10.98;;;;;;;;;;4344626;32;319236;-81
2024/04/16 06:36:40;;;;;;;37.15;11.07;;;;;;;;;;4348134;32;319190;-82
2024/04/16 06:39:08;;;;;;;31.25;13.07;;;;;;;;;;4349040;32;318484;-80
2024/04/16 06:41:33;;;;;;;49.13;14.85;;;;;;;;;;4331330;32;343255;-81
2024/04/16 06:44:00;;;;;;;26.73;14.25;;;;;;;;;;4348604;32;319380;-81
2024/04/16 06:46:27;;;;;;;38.00;13.82;;;;;;;;;;4339556;32;319513;-80
2024/04/16 06:48:54;;;;;;;36.75;14.02;;;;;;;;;;4349784;32;319406;-82
2024/04/16 06:51:19;;;;;;;42.88;13.32;;;;;;;;;;4333012;32;319426;-80
2024/04/16 06:53:46;;;;;;;35.53;12.55;;;;;;;;;;4347470;32;318671;-82
2024/04/16 06:56:12;;;;;;;34.42;12.77;;;;;;;;;;4339883;32;319408;-81
2024/04/16 06:58:39;;;;;;;37.30;10.68;;;;;;;;;;4349184;32;319312;-81
2024/04/16 07:01:04;;;;;;;28.12;10.45;;;;;;;;;;4348999;32;339413;-81
2024/04/16 07:03:32;;;;;;;30.42;10.88;;;;;;;;;;4332048;32;319870;-82
2024/04/16 07:05:58;;;;;;;33.28;10.82;;;;;;;;;;4349376;32;319430;-82
2024/04/16 07:08:26;;;;;;;18.27;10.18;;;;;;;;;;4325295;32;319043;-81
2024/04/16 07:10:52;;;;;;;33.72;11.07;;;;;;;;;;4333953;32;319140;-82
2024/04/16 07:13:18;;;;;;;27.35;11.43;;;;;;;;;;4324946;32;342036;-82
2024/04/16 07:15:44;;;;;;;43.92;11.60;;;;;;;;;;4344619;32;319182;-82
2024/04/16 07:18:11;;;;;;;29.98;11.12;;;;;;;;;;4339144;32;318577;-81
2024/04/16 07:20:45;;;;;;;25.23;9.43;;;;;;;;;;4348873;32;319835;-82
2024/04/16 07:23:12;;;;;;;30.40;11.07;;;;;;;;;;4338062;32;318314;-81
2024/04/16 07:25:37;;;;;;;36.22;12.25;;;;;;;;;;4339761;32;319162;-83
2024/04/16 07:28:05;;;;;;;25.12;10.48;;;;;;;;;;4347626;32;318697;-83
2024/04/16 07:30:30;;;;;;;31.10;12.70;;;;;;;;;;4335851;32;318723;-84
2024/04/16 07:32:57;;;;;;;40.85;13.62;;;;;;;;;;4348378;32;318845;-85
2024/04/16 07:35:23;;;;;;;49.40;13.50;;;;;;;;;;4333012;32;318564;-84
2024/04/16 07:37:51;;;;;;;44.05;13.55;;;;;;;;;;4349724;32;318963;-87
2024/04/16 07:40:17;;;;;;;34.50;16.83;;;;;;;;;;4342205;32;319208;-85
2024/04/16 07:42:43;;;;;;;47.38;13.80;;;;;;;;;;4351522;32;318563;-86
2024/04/16 07:45:09;;;;;;;28.17;15.20;;;;;;;;;;4343688;32;319401;-86
2024/04/16 07:47:36;;;;;;;43.17;16.60;;;;;;;;;;4347042;32;318562;-84
2024/04/16 07:50:01;;;;;;;29.73;13.70;;;;;;;;;;4352822;32;319321;-86
2024/04/16 07:52:29;;;;;;;28.73;15.48;;;;;;;;;;4343287;32;319149;-84
2024/04/16 07:54:56;;;;;;;24.67;12.88;;;;;;;;;;4353613;32;319258;-84
2024/04/16 07:57:22;;;;;;;21.90;11.82;;;;;;;;;;4336907;32;358825;-83
2024/04/16 07:59:48;;;;;;;31.40;15.52;;;;;;;;;;4354364;32;318888;-84
2024/04/16 08:02:15;;;;;;;33.00;13.85;;;;;;;;;;4345339;32;319412;-85
2024/04/16 08:04:41;;;;;;;32.85;13.02;;;;;;;;;;4340672;32;319204;-84
2024/04/16 08:07:07;;;;;;;25.83;11.88;;;;;;;;;;4349481;32;317730;-83
2024/04/16 08:09:33;;;;;;;29.63;11.73;;;;;;;;;;4331435;32;417250;-85
2024/04/16 08:12:01;;;;;;;27.10;10.90;;;;;;;;;;4349727;32;318995;-84
2024/04/16 08:14:27;;;;;;;18.75;10.45;;;;;;;;;;4331299;32;318447;-84
2024/04/16 08:16:54;;;;;;;31.90;12.27;;;;;;;;;;4339210;32;319100;-84
2024/04/16 08:19:20;;;;;;;26.75;10.90;;;;;;;;;;4327858;32;319202;-84
2024/04/16 08:21:47;;;;;;;25.83;10.98;;;;;;;;;;4352650;32;319139;-86
2024/04/16 08:24:13;;;;;;;27.67;12.02;;;;;;;;;;4342366;32;319204;-83
2024/04/16 08:26:40;;;;;;;25.00;10.85;;;;;;;;;;4354017;32;318618;-85
2024/04/16 08:29:07;;;;;;;24.55;11.48;;;;;;;;;;4353859;32;318666;-85
2024/04/16 08:31:34;;;;;;;32.25;12.40;;;;;;;;;;4334505;32;419574;-83
2024/04/16 08:34:02;;;;;;;25.35;13.07;;;;;;;;;;4353389;32;319183;-85
2024/04/16 08:36:29;;;;;;;29.73;15.27;;;;;;;;;;4346052;32;319148;-85
2024/04/16 08:38:55;;;;;;;28.25;14.35;;;;;;;;;;4356857;32;318842;-85
2024/04/16 08:41:22;;;;;;;28.83;12.90;;;;;;;;;;4346822;32;319274;-85
2024/04/16 08:43:49;;;;;;;24.58;17.52;;;;;;;;;;4361026;32;317891;-85
2024/04/16 08:46:17;;;;;;;31.42;16.02;;;;;;;;;;4345877;32;319362;-83
2024/04/16 08:48:45;;;;;;;29.20;13.35;;;;;;;;;;4352690;32;319116;-85
2024/04/16 08:51:14;;;;;;;29.70;13.23;;;;;;;;;;4341537;32;319195;-86
2024/04/16 08:53:41;;;;;;;26.60;13.23;;;;;;;;;;4345739;32;318901;-86
2024/04/16 08:56:10;;;;;;;39.13;13.40;;;;;;;;;;4350364;32;318520;-83
2024/04/16 08:58:35;;;;;;;22.00;11.82;;;;;;;;;;4334963;32;418170;-84
2024/04/16 09:01:05;;;;;;;22.80;11.12;;;;;;;;;;4334405;32;319474;-84
2024/04/16 09:03:33;;;;;;;27.92;11.93;;;;;;;;;;4320614;32;319289;-83
2024/04/16 09:06:01;;;;;;;35.10;13.13;;;;;;;;;;4334955;32;319096;-83
2024/04/16 09:08:28;;;;;;;29.55;11.20;;;;;;;;;;4325540;32;319545;-84
2024/04/16 09:10:55;;;;;;;17.80;10.93;;;;;;;;;;4333954;32;318340;-84
2024/04/16 09:13:21;;;;;;;22.92;11.02;;;;;;;;;;4322219;32;319204;-84
2024/04/16 09:15:48;;;;;;;27.55;12.15;;;;;;;;;;4349968;32;319120;-83
2024/04/16 09:18:22;;;;;;;22.80;10.05;;;;;;;;;;4340014;32;318591;-80
2024/04/16 09:20:50;;;;;;;22.05;10.57;;;;;;;;;;4347304;32;334062;-80
2024/04/16 09:23:16;;;;;;;31.73;13.40;;;;;;;;;;4339310;32;319373;-80
2024/04/16 09:25:42;;;;;;;25.15;12.63;;;;;;;;;;4341535;32;319204;-80
2024/04/16 09:28:12;;;;;;;31.73;12.45;;;;;;;;;;4339091;32;319186;-81
2024/04/16 09:30:39;;;;;;;25.60;12.50;;;;;;;;;;4347814;32;318686;-80
2024/04/16 09:33:05;;;;;;;26.67;12.43;;;;;;;;;;4348902;32;319597;-80
2024/04/16 09:35:34;;;;;;;30.58;12.52;;;;;;;;;;4332094;32;319157;-80
2024/04/16 09:38:03;;;;;;;32.20;10.63;;;;;;;;;;4347219;32;319352;-80
2024/04/16 09:40:31;;;;;;;17.58;11.20;;;;;;;;;;4337786;32;319240;-80
2024/04/16 09:42:58;;;;;;;23.02;11.10;;;;;;;;;;4347535;32;319323;-80
2024/04/16 09:45:25;;;;;;;30.48;11.15;;;;;;;;;;4332927;32;319376;-84
2024/04/16 09:47:52;;;;;;;28.20;11.98;;;;;;;;;;4349790;32;319238;-84
2024/04/16 09:50:21;;;;;;;33.55;17.40;;;;;;;;;;4338827;32;319365;-84
2024/04/16 09:52:50;;;;;;;54.65;26.70;;;;;;;;;;4349939;32;319096;-84
2024/04/16 09:55:19;;;;;;;39.45;20.88;;;;;;;;;;4338170;32;319382;-83
2024/04/16 09:57:46;;;;;;;22.15;11.52;;;;;;;;;;4345870;32;319251;-83
2024/04/16 10:00:14;;;;;;;26.27;11.12;;;;;;;;;;4340221;32;319794;-84
2024/04/16 10:02:42;;;;;;;13.00;9.95;;;;;;;;;;4352167;32;319579;-83
2024/04/16 10:05:11;;;;;;;21.12;9.73;;;;;;;;;;4342280;32;317838;-84
2024/04/16 10:07:37;;;;;;;18.48;8.95;;;;;;;;;;4345166;32;319059;-84
2024/04/16 10:10:05;;;;;;;22.40;10.18;;;;;;;;;;4352967;32;318305;-84
2024/04/16 10:12:33;;;;;;;20.42;9.23;;;;;;;;;;4341473;32;319352;-84
2024/04/16 10:15:01;;;;;;;27.73;9.65;;;;;;;;;;4351190;32;318929;-84
2024/04/16 10:17:28;;;;;;;23.45;9.35;;;;;;;;;;4331330;32;318622;-84
2024/04/16 10:19:54;;;;;;;30.08;8.88;;;;;;;;;;4344126;32;318080;-84
2024/04/16 10:22:20;;;;;;;25.45;9.68;;;;;;;;;;4340016;32;318051;-84
2024/04/16 10:24:53;;;;;;;10.68;5.80;;;;;;;;;;4351925;32;318189;-84
2024/04/16 10:27:20;;;;;;;13.05;6.30;;;;;;;;;;4338257;32;317736;-83
2024/04/16 10:29:48;;;;;;;13.57;6.40;;;;;;;;;;4346534;32;351836;-83
2024/04/16 10:32:19;;;;;;;13.05;5.60;;;;;;;;;;4338431;32;318841;-83
2024/04/16 10:34:47;;;;;;;8.93;5.65;;;;;;;;;;4347245;32;318205;-84
2024/04/16 10:37:17;;;;;;;14.00;6.78;;;;;;;;;;4338867;32;317335;-83
2024/04/16 10:39:45;;;;;;;15.35;7.43;;;;;;;;;;4343581;32;319294;-83
2024/04/16 10:42:11;;;;;;;21.85;6.22;;;;;;;;;;4337975;32;318169;-83
2024/04/16 10:44:39;;;;;;;10.90;6.32;;;;;;;;;;4348080;32;318449;-84
2024/04/16 10:47:06;;;;;;;17.37;6.57;;;;;;;;;;4343297;32;318854;-83
2024/04/16 10:49:35;;;;;;;21.40;7.05;;;;;;;;;;4323991;32;318224;-84
2024/04/16 10:52:09;;;;;;;14.23;7.10;;;;;;;;;;4349746;32;317446;-83
2024/04/16 10:54:37;;;;;;;15.10;5.95;;;;;;;;;;4336639;32;417522;-84
2024/04/16 10:57:03;;;;;;;17.00;6.32;;;;;;;;;;4350587;32;318455;-84
2024/04/16 10:59:30;;;;;;;11.77;6.72;;;;;;;;;;4334086;32;318096;-83
2024/04/16 11:01:56;;;;;;;15.77;7.10;;;;;;;;;;4348408;32;318300;-82
2024/04/16 11:04:24;;;;;;;11.35;6.28;;;;;;;;;;4338242;32;318175;-81
2024/04/16 11:06:49;;;;;;;10.95;6.07;;;;;;;;;;4348485;32;318785;-81
2024/04/16 11:09:18;;;;;;;15.87;7.10;;;;;;;;;;4337840;32;349316;-81
2024/04/16 11:11:44;;;;;;;12.60;6.68;;;;;;;;;;4344752;32;318210;-81
2024/04/16 11:14:11;;;;;;;17.27;6.22;;;;;;;;;;4340000;32;318821;-81
2024/04/16 11:16:37;;;;;;;10.38;6.62;;;;;;;;;;4347836;32;317623;-81
2024/04/16 11:19:04;;;;;;;14.00;6.47;;;;;;;;;;4343839;32;318334;-81
2024/04/16 11:21:34;;;;;;;16.80;6.90;;;;;;;;;;4319664;32;318004;-83
2024/04/16 11:24:01;;;;;;;12.68;6.60;;;;;;;;;;4348467;32;318021;-84
2024/04/16 11:26:27;;;;;;;16.02;7.15;;;;;;;;;;4337503;32;318485;-82
2024/04/16 11:28:54;;;;;;;17.25;7.43;;;;;;;;;;4346966;32;318208;-84
2024/04/16 11:31:19;;;;;;;15.45;6.93;;;;;;;;;;4338019;32;318322;-84
2024/04/16 11:33:46;;;;;;;28.92;7.50;;;;;;;;;;4353030;32;317708;-84
2024/04/16 11:36:15;;;;;;;18.30;8.30;;;;;;;;;;4340448;32;318427;-84
2024/04/16 11:38:43;;;;;;;29.05;8.63;;;;;;;;;;4353363;32;317454;-84
2024/04/16 11:41:09;;;;;;;21.70;8.18;;;;;;;;;;4346092;32;318225;-85
2024/04/16 11:43:36;;;;;;;20.92;9.48;;;;;;;;;;4346803;32;317808;-81
2024/04/16 11:46:04;;;;;;;27.62;9.40;;;;;;;;;;4350904;32;318438;-81
2024/04/16 11:48:31;;;;;;;22.25;9.57;;;;;;;;;;4343232;32;317477;-81
2024/04/16 11:50:57;;;;;;;23.10;10.23;;;;;;;;;;4351458;32;318384;-81
2024/04/16 11:53:23;;;;;;;26.33;8.55;;;;;;;;;;4327406;32;320870;-81
2024/04/16 11:55:50;;;;;;;32.78;9.00;;;;;;;;;;4347793;32;318254;-81
2024/04/16 11:58:17;;;;;;;25.80;8.32;;;;;;;;;;4337746;32;318262;-81
2024/04/16 12:00:43;;;;;;;25.30;8.60;;;;;;;;;;4346155;32;318250;-81
2024/04/16 12:03:10;;;;;;;35.20;9.52;;;;;;;;;;4339348;32;318491;-81
2024/04/16 12:05:36;;;;;;;28.65;9.30;;;;;;;;;;4341364;32;318601;-81
2024/04/16 12:08:03;;;;;;;31.45;8.93;;;;;;;;;;4347066;32;317788;-81
2024/04/16 12:10:29;;;;;;;25.17;9.23;;;;;;;;;;4336621;32;321932;-81
2024/04/16 12:12:57;;;;;;;18.45;8.10;;;;;;;;;;4346066;32;350681;-81
2024/04/16 12:15:23;;;;;;;20.55;7.97;;;;;;;;;;4330811;32;318480;-81
2024/04/16 12:17:49;;;;;;;24.77;8.18;;;;;;;;;;4347845;32;318340;-81
2024/04/16 12:20:15;;;;;;;21.80;8.48;;;;;;;;;;4339035;32;318530;-81
2024/04/16 12:22:42;;;;;;;28.12;7.65;;;;;;;;;;4348044;32;318647;-81
2024/04/16 12:25:09;;;;;;;28.73;7.45;;;;;;;;;;4348585;32;320286;-81
2024/04/16 12:27:35;;;;;;;25.37;7.05;;;;;;;;;;4329589;32;419133;-80
2024/04/16 12:30:03;;;;;;;35.53;9.52;;;;;;;;;;4348568;32;318982;-80
2024/04/16 12:32:30;;;;;;;21.12;8.50;;;;;;;;;;4338926;32;318782;-81
2024/04/16 12:34:55;;;;;;;27.33;7.20;;;;;;;;;;4348820;32;318274;-82
2024/04/16 12:37:22;;;;;;;26.25;7.70;;;;;;;;;;4330881;32;330688;-81
2024/04/16 12:39:48;;;;;;;30.30;8.75;;;;;;;;;;4346624;32;317569;-82
2024/04/16 12:42:15;;;;;;;27.10;6.30;;;;;;;;;;4336914;32;318620;-82
2024/04/16 12:44:42;;;;;;;25.45;9.02;;;;;;;;;;4343239;32;343410;-82
2024/04/16 12:47:12;;;;;;;49.17;9.25;;;;;;;;;;4349433;32;318258;-81
2024/04/16 12:49:38;;;;;;;46.37;9.73;;;;;;;;;;4328214;32;419252;-82
2024/04/16 12:52:05;;;;;;;62.05;10.68;;;;;;;;;;4347084;32;318570;-82
2024/04/16 12:54:31;;;;;;;31.02;7.70;;;;;;;;;;4337086;32;319476;-82
2024/04/16 12:56:58;;;;;;;36.58;9.52;;;;;;;;;;4346620;32;318514;-82
2024/04/16 12:59:23;;;;;;;38.53;9.40;;;;;;;;;;4332052;32;318584;-82
2024/04/16 13:01:50;;;;;;;48.13;9.40;;;;;;;;;;4348355;32;318343;-82
2024/04/16 13:04:17;;;;;;;40.80;9.05;;;;;;;;;;4338074;32;318313;-82
2024/04/16 13:06:44;;;;;;;33.95;7.53;;;;;;;;;;4347943;32;318770;-80
2024/04/16 13:09:10;;;;;;;36.22;8.80;;;;;;;;;;4339144;32;337374;-81
2024/04/16 13:11:36;;;;;;;40.47;7.53;;;;;;;;;;4343272;32;318647;-81
2024/04/16 13:14:02;;;;;;;46.92;9.48;;;;;;;;;;4347179;32;317357;-81
2024/04/16 13:16:29;;;;;;;36.30;6.57;;;;;;;;;;4337774;32;318597;-81
2024/04/16 13:18:54;;;;;;;38.25;8.55;;;;;;;;;;4348848;32;318297;-82
2024/04/16 13:21:22;;;;;;;45.47;8.32;;;;;;;;;;4334214;32;318743;-83
2024/04/16 13:23:48;;;;;;;47.00;9.68;;;;;;;;;;4333235;32;318440;-82
2024/04/16 13:26:15;;;;;;;35.70;9.00;;;;;;;;;;4324498;32;318424;-82
2024/04/16 13:28:40;;;;;;;32.08;7.93;;;;;;;;;;4342441;32;318575;-81
2024/04/16 13:31:07;;;;;;;35.97;8.95;;;;;;;;;;4350363;32;318468;-82
2024/04/16 13:33:33;;;;;;;40.85;7.32;;;;;;;;;;4327942;32;417638;-82
2024/04/16 13:36:00;;;;;;;47.53;8.82;;;;;;;;;;4350615;32;318098;-82
2024/04/16 13:38:27;;;;;;;31.10;8.00;;;;;;;;;;4342577;32;318388;-82
2024/04/16 13:40:53;;;;;;;44.00;8.75;;;;;;;;;;4351226;32;317398;-82
2024/04/16 13:43:19;;;;;;;42.72;9.57;;;;;;;;;;4332088;32;318356;-80
2024/04/16 13:45:47;;;;;;;43.42;8.20;;;;;;;;;;4335941;32;318253;-82
2024/04/16 13:48:13;;;;;;;41.85;9.32;;;;;;;;;;4323563;32;318603;-82
2024/04/16 13:50:42;;;;;;;54.10;9.80;;;;;;;;;;4349988;32;318049;-82
2024/04/16 13:53:08;;;;;;;34.08;9.43;;;;;;;;;;4351742;32;318214;-82
2024/04/16 13:55:37;;;;;;;39.30;8.18;;;;;;;;;;4331764;32;417330;-84
2024/04/16 13:58:03;;;;;;;38.55;8.07;;;;;;;;;;4352276;32;317697;-80
2024/04/16 14:00:30;;;;;;;39.20;8.32;;;;;;;;;;4342687;32;318661;-80
2024/04/16 14:02:56;;;;;;;37.95;8.65;;;;;;;;;;4349761;32;318352;-82
2024/04/16 14:05:23;;;;;;;41.53;9.68;;;;;;;;;;4336559;32;318506;-81
2024/04/16 14:07:48;;;;;;;36.28;8.85;;;;;;;;;;4357627;32;318763;-83
2024/04/16 14:10:15;;;;;;;52.88;9.20;;;;;;;;;;4353819;32;318017;-80
2024/04/16 14:12:42;;;;;;;35.63;8.60;;;;;;;;;;4363817;32;318306;-82